Papere Vagabonde

Aviosuperficie Caposile LIKI

Pista 04


Pista 22

Le immagini vengono aggiornate ogni minuto
Cliccare sull'immagine per l'ingrandimento.

METAR LIPZ

LIPZ 182220Z 33004KT 8000 NSC M02/M03 Q1026 NOSIG

TAF LIPZ 181700Z 1818/1924 VRB05KT CAVOK
  TEMPO 1820/1909 3000 BR
  PROB40
  TEMPO 1900/1908 0800 FZFG BKN010
  TEMPO 1916/1924 3000 BR




Mappa Fronti